sensor_id;sensor_type;location;lat;lon;timestamp;P1;durP1;ratioP1;P2;durP2;ratioP2
12267;SDS011;6196;48.398;11.736;2022-12-18T00:01:25;88.40;;;35.73;;
12267;SDS011;6196;48.398;11.736;2022-12-18T00:03:57;86.50;;;32.93;;
12267;SDS011;6196;48.398;11.736;2022-12-18T00:06:25;80.60;;;31.17;;
12267;SDS011;6196;48.398;11.736;2022-12-18T00:08:54;99.50;;;34.27;;
12267;SDS011;6196;48.398;11.736;2022-12-18T00:11:24;89.07;;;33.53;;
12267;SDS011;6196;48.398;11.736;2022-12-18T00:13:53;81.80;;;32.07;;
12267;SDS011;6196;48.398;11.736;2022-12-18T00:16:23;80.13;;;33.23;;
12267;SDS011;6196;48.398;11.736;2022-12-18T00:18:52;93.90;;;35.53;;
12267;SDS011;6196;48.398;11.736;2022-12-18T00:21:21;96.87;;;34.33;;
12267;SDS011;6196;48.398;11.736;2022-12-18T00:23:49;90.00;;;32.50;;
12267;SDS011;6196;48.398;11.736;2022-12-18T00:26:20;79.27;;;32.23;;
12267;SDS011;6196;48.398;11.736;2022-12-18T00:28:51;85.33;;;32.17;;
12267;SDS011;6196;48.398;11.736;2022-12-18T00:31:19;81.73;;;31.10;;
12267;SDS011;6196;48.398;11.736;2022-12-18T00:33:48;87.43;;;32.33;;
12267;SDS011;6196;48.398;11.736;2022-12-18T00:36:21;78.70;;;33.10;;
12267;SDS011;6196;48.398;11.736;2022-12-18T00:38:50;87.53;;;34.17;;
12267;SDS011;6196;48.398;11.736;2022-12-18T00:41:19;86.40;;;31.13;;
12267;SDS011;6196;48.398;11.736;2022-12-18T00:44:06;91.73;;;33.87;;
12267;SDS011;6196;48.398;11.736;2022-12-18T00:46:35;88.30;;;33.93;;
12267;SDS011;6196;48.398;11.736;2022-12-18T00:49:02;83.47;;;32.73;;
12267;SDS011;6196;48.398;11.736;2022-12-18T00:51:30;84.03;;;33.27;;
12267;SDS011;6196;48.398;11.736;2022-12-18T00:53:56;91.50;;;34.70;;
12267;SDS011;6196;48.398;11.736;2022-12-18T00:56:24;88.27;;;34.07;;
12267;SDS011;6196;48.398;11.736;2022-12-18T00:58:51;86.43;;;34.50;;
12267;SDS011;6196;48.398;11.736;2022-12-18T01:01:18;89.63;;;33.80;;
12267;SDS011;6196;48.398;11.736;2022-12-18T01:03:46;80.87;;;32.70;;
12267;SDS011;6196;48.398;11.736;2022-12-18T01:06:13;85.90;;;34.27;;
12267;SDS011;6196;48.398;11.736;2022-12-18T01:08:42;92.37;;;34.17;;
12267;SDS011;6196;48.398;11.736;2022-12-18T01:11:10;86.63;;;33.93;;
12267;SDS011;6196;48.398;11.736;2022-12-18T01:13:42;93.00;;;34.90;;
12267;SDS011;6196;48.398;11.736;2022-12-18T01:16:11;83.43;;;33.47;;
12267;SDS011;6196;48.398;11.736;2022-12-18T01:18:40;87.33;;;34.10;;
12267;SDS011;6196;48.398;11.736;2022-12-18T01:21:11;90.80;;;34.20;;
12267;SDS011;6196;48.398;11.736;2022-12-18T01:23:41;89.07;;;34.30;;
12267;SDS011;6196;48.398;11.736;2022-12-18T01:26:09;73.20;;;31.03;;
12267;SDS011;6196;48.398;11.736;2022-12-18T01:28:42;77.43;;;34.10;;
12267;SDS011;6196;48.398;11.736;2022-12-18T01:31:14;75.27;;;32.23;;
12267;SDS011;6196;48.398;11.736;2022-12-18T01:34:02;78.07;;;31.47;;
12267;SDS011;6196;48.398;11.736;2022-12-18T01:36:31;86.00;;;34.73;;
12267;SDS011;6196;48.398;11.736;2022-12-18T01:39:03;79.67;;;32.63;;
12267;SDS011;6196;48.398;11.736;2022-12-18T01:41:32;75.27;;;31.50;;
12267;SDS011;6196;48.398;11.736;2022-12-18T01:47:27;77.80;;;31.53;;
12267;SDS011;6196;48.398;11.736;2022-12-18T01:50:07;83.47;;;31.80;;
12267;SDS011;6196;48.398;11.736;2022-12-18T01:52:43;80.57;;;33.23;;
12267;SDS011;6196;48.398;11.736;2022-12-18T01:55:15;71.73;;;32.23;;
12267;SDS011;6196;48.398;11.736;2022-12-18T01:57:44;69.93;;;30.87;;
12267;SDS011;6196;48.398;11.736;2022-12-18T02:00:22;78.77;;;34.77;;
12267;SDS011;6196;48.398;11.736;2022-12-18T02:02:50;76.63;;;31.17;;
12267;SDS011;6196;48.398;11.736;2022-12-18T02:05:18;77.57;;;30.30;;
12267;SDS011;6196;48.398;11.736;2022-12-18T02:13:46;69.90;;;27.87;;
12267;SDS011;6196;48.398;11.736;2022-12-18T02:16:37;64.37;;;29.10;;
12267;SDS011;6196;48.398;11.736;2022-12-18T02:22:26;76.73;;;30.50;;
12267;SDS011;6196;48.398;11.736;2022-12-18T02:28:32;66.67;;;27.50;;
12267;SDS011;6196;48.398;11.736;2022-12-18T02:31:08;74.67;;;30.90;;
12267;SDS011;6196;48.398;11.736;2022-12-18T02:33:41;81.20;;;30.10;;
12267;SDS011;6196;48.398;11.736;2022-12-18T02:36:11;69.10;;;29.50;;
12267;SDS011;6196;48.398;11.736;2022-12-18T02:38:41;70.00;;;29.33;;
12267;SDS011;6196;48.398;11.736;2022-12-18T02:41:09;72.37;;;30.30;;
12267;SDS011;6196;48.398;11.736;2022-12-18T02:43:38;76.43;;;32.03;;
12267;SDS011;6196;48.398;11.736;2022-12-18T02:46:48;74.17;;;30.53;;
12267;SDS011;6196;48.398;11.736;2022-12-18T02:49:12;75.40;;;29.73;;
12267;SDS011;6196;48.398;11.736;2022-12-18T02:51:55;70.57;;;28.43;;
12267;SDS011;6196;48.398;11.736;2022-12-18T03:00:28;64.93;;;28.70;;
12267;SDS011;6196;48.398;11.736;2022-12-18T03:06:04;72.17;;;28.60;;
12267;SDS011;6196;48.398;11.736;2022-12-18T03:08:37;68.03;;;29.67;;
12267;SDS011;6196;48.398;11.736;2022-12-18T03:11:09;61.80;;;28.43;;
12267;SDS011;6196;48.398;11.736;2022-12-18T03:13:39;61.87;;;28.97;;
12267;SDS011;6196;48.398;11.736;2022-12-18T03:16:19;67.40;;;29.40;;
12267;SDS011;6196;48.398;11.736;2022-12-18T03:18:56;61.70;;;27.67;;
12267;SDS011;6196;48.398;11.736;2022-12-18T03:21:28;59.57;;;27.10;;
12267;SDS011;6196;48.398;11.736;2022-12-18T03:24:01;68.83;;;29.73;;
12267;SDS011;6196;48.398;11.736;2022-12-18T03:26:32;73.70;;;30.13;;
12267;SDS011;6196;48.398;11.736;2022-12-18T03:29:04;65.77;;;30.07;;
12267;SDS011;6196;48.398;11.736;2022-12-18T03:31:36;66.70;;;30.40;;
12267;SDS011;6196;48.398;11.736;2022-12-18T03:34:12;71.03;;;30.90;;
12267;SDS011;6196;48.398;11.736;2022-12-18T03:36:49;72.13;;;31.07;;
12267;SDS011;6196;48.398;11.736;2022-12-18T03:39:16;70.80;;;30.90;;
12267;SDS011;6196;48.398;11.736;2022-12-18T03:41:51;67.20;;;29.57;;
12267;SDS011;6196;48.398;11.736;2022-12-18T03:44:45;66.63;;;28.70;;
12267;SDS011;6196;48.398;11.736;2022-12-18T03:50:37;55.63;;;24.47;;
12267;SDS011;6196;48.398;11.736;2022-12-18T03:56:17;57.87;;;27.73;;
12267;SDS011;6196;48.398;11.736;2022-12-18T03:58:47;55.40;;;25.87;;
12267;SDS011;6196;48.398;11.736;2022-12-18T04:01:15;53.03;;;24.43;;
12267;SDS011;6196;48.398;11.736;2022-12-18T04:03:44;53.83;;;24.50;;
12267;SDS011;6196;48.398;11.736;2022-12-18T04:06:15;51.77;;;23.30;;
12267;SDS011;6196;48.398;11.736;2022-12-18T04:08:43;54.10;;;25.30;;
12267;SDS011;6196;48.398;11.736;2022-12-18T04:11:11;46.40;;;22.50;;
12267;SDS011;6196;48.398;11.736;2022-12-18T04:13:38;49.13;;;21.70;;
12267;SDS011;6196;48.398;11.736;2022-12-18T04:16:06;54.70;;;24.67;;
12267;SDS011;6196;48.398;11.736;2022-12-18T04:18:33;48.43;;;22.10;;
12267;SDS011;6196;48.398;11.736;2022-12-18T04:21:00;52.83;;;23.80;;
12267;SDS011;6196;48.398;11.736;2022-12-18T04:23:28;48.17;;;22.27;;
12267;SDS011;6196;48.398;11.736;2022-12-18T04:25:55;49.17;;;21.73;;
12267;SDS011;6196;48.398;11.736;2022-12-18T04:28:22;49.07;;;21.77;;
12267;SDS011;6196;48.398;11.736;2022-12-18T04:30:49;48.43;;;21.43;;
12267;SDS011;6196;48.398;11.736;2022-12-18T04:33:16;45.63;;;23.30;;
12267;SDS011;6196;48.398;11.736;2022-12-18T04:35:43;48.67;;;23.07;;
12267;SDS011;6196;48.398;11.736;2022-12-18T04:38:11;41.80;;;20.70;;
12267;SDS011;6196;48.398;11.736;2022-12-18T04:40:37;45.63;;;21.70;;
12267;SDS011;6196;48.398;11.736;2022-12-18T04:43:06;45.60;;;21.13;;
12267;SDS011;6196;48.398;11.736;2022-12-18T04:45:33;49.03;;;22.23;;
12267;SDS011;6196;48.398;11.736;2022-12-18T04:48:00;46.00;;;22.23;;
12267;SDS011;6196;48.398;11.736;2022-12-18T04:50:28;45.53;;;21.03;;
12267;SDS011;6196;48.398;11.736;2022-12-18T04:52:55;47.07;;;22.13;;
12267;SDS011;6196;48.398;11.736;2022-12-18T04:55:23;49.77;;;23.63;;
12267;SDS011;6196;48.398;11.736;2022-12-18T04:57:51;44.30;;;22.53;;
12267;SDS011;6196;48.398;11.736;2022-12-18T05:00:17;53.27;;;24.83;;
12267;SDS011;6196;48.398;11.736;2022-12-18T05:02:45;44.57;;;21.83;;
12267;SDS011;6196;48.398;11.736;2022-12-18T05:05:12;49.27;;;23.20;;
12267;SDS011;6196;48.398;11.736;2022-12-18T05:07:39;53.90;;;24.57;;
12267;SDS011;6196;48.398;11.736;2022-12-18T05:10:06;52.77;;;23.97;;
12267;SDS011;6196;48.398;11.736;2022-12-18T05:12:35;51.70;;;23.13;;
12267;SDS011;6196;48.398;11.736;2022-12-18T05:15:22;51.73;;;23.77;;
12267;SDS011;6196;48.398;11.736;2022-12-18T05:17:48;51.17;;;23.40;;
12267;SDS011;6196;48.398;11.736;2022-12-18T05:20:15;51.27;;;24.00;;
12267;SDS011;6196;48.398;11.736;2022-12-18T05:22:44;47.03;;;23.53;;
12267;SDS011;6196;48.398;11.736;2022-12-18T05:25:11;46.77;;;22.27;;
12267;SDS011;6196;48.398;11.736;2022-12-18T05:27:37;48.37;;;23.40;;
12267;SDS011;6196;48.398;11.736;2022-12-18T05:30:04;46.60;;;22.10;;
12267;SDS011;6196;48.398;11.736;2022-12-18T05:32:32;44.80;;;21.57;;
12267;SDS011;6196;48.398;11.736;2022-12-18T05:34:59;47.63;;;22.57;;
12267;SDS011;6196;48.398;11.736;2022-12-18T05:37:25;48.37;;;21.57;;
12267;SDS011;6196;48.398;11.736;2022-12-18T05:39:52;50.63;;;22.20;;
12267;SDS011;6196;48.398;11.736;2022-12-18T05:42:19;46.80;;;22.07;;
12267;SDS011;6196;48.398;11.736;2022-12-18T05:44:46;47.53;;;22.00;;
12267;SDS011;6196;48.398;11.736;2022-12-18T05:47:13;46.57;;;21.87;;
12267;SDS011;6196;48.398;11.736;2022-12-18T05:49:40;47.73;;;22.07;;
12267;SDS011;6196;48.398;11.736;2022-12-18T05:52:07;47.53;;;23.20;;
12267;SDS011;6196;48.398;11.736;2022-12-18T05:54:33;52.93;;;23.67;;
12267;SDS011;6196;48.398;11.736;2022-12-18T05:57:00;48.10;;;22.97;;
12267;SDS011;6196;48.398;11.736;2022-12-18T05:59:27;47.83;;;22.87;;
12267;SDS011;6196;48.398;11.736;2022-12-18T06:01:54;50.17;;;23.07;;
12267;SDS011;6196;48.398;11.736;2022-12-18T06:04:21;39.50;;;18.83;;
12267;SDS011;6196;48.398;11.736;2022-12-18T06:06:48;41.53;;;19.57;;
12267;SDS011;6196;48.398;11.736;2022-12-18T06:09:14;44.37;;;20.67;;
12267;SDS011;6196;48.398;11.736;2022-12-18T06:11:41;52.03;;;23.23;;
12267;SDS011;6196;48.398;11.736;2022-12-18T06:14:08;49.10;;;23.07;;
12267;SDS011;6196;48.398;11.736;2022-12-18T06:16:36;47.70;;;23.17;;
12267;SDS011;6196;48.398;11.736;2022-12-18T06:19:04;47.33;;;22.37;;
12267;SDS011;6196;48.398;11.736;2022-12-18T06:21:31;52.63;;;22.87;;
12267;SDS011;6196;48.398;11.736;2022-12-18T06:23:59;52.23;;;24.60;;
12267;SDS011;6196;48.398;11.736;2022-12-18T06:26:26;48.87;;;22.60;;
12267;SDS011;6196;48.398;11.736;2022-12-18T06:28:54;51.20;;;24.53;;
12267;SDS011;6196;48.398;11.736;2022-12-18T06:31:21;46.87;;;23.07;;
12267;SDS011;6196;48.398;11.736;2022-12-18T06:33:48;46.93;;;22.90;;
12267;SDS011;6196;48.398;11.736;2022-12-18T06:36:15;48.67;;;23.10;;
12267;SDS011;6196;48.398;11.736;2022-12-18T06:38:43;48.83;;;22.97;;
12267;SDS011;6196;48.398;11.736;2022-12-18T06:41:11;51.50;;;25.13;;
12267;SDS011;6196;48.398;11.736;2022-12-18T06:43:43;47.37;;;22.13;;
12267;SDS011;6196;48.398;11.736;2022-12-18T06:46:11;46.37;;;22.03;;
12267;SDS011;6196;48.398;11.736;2022-12-18T06:48:38;43.77;;;20.67;;
12267;SDS011;6196;48.398;11.736;2022-12-18T06:51:06;40.60;;;20.93;;
12267;SDS011;6196;48.398;11.736;2022-12-18T06:53:33;46.30;;;20.57;;
12267;SDS011;6196;48.398;11.736;2022-12-18T06:56:03;47.63;;;20.60;;
12267;SDS011;6196;48.398;11.736;2022-12-18T06:58:36;46.87;;;20.67;;
12267;SDS011;6196;48.398;11.736;2022-12-18T07:01:05;46.90;;;21.80;;
12267;SDS011;6196;48.398;11.736;2022-12-18T07:03:34;46.23;;;22.03;;
12267;SDS011;6196;48.398;11.736;2022-12-18T07:06:03;49.90;;;22.83;;
12267;SDS011;6196;48.398;11.736;2022-12-18T07:08:30;46.20;;;20.93;;
12267;SDS011;6196;48.398;11.736;2022-12-18T07:10:58;47.73;;;21.03;;
12267;SDS011;6196;48.398;11.736;2022-12-18T07:13:25;46.80;;;21.20;;
12267;SDS011;6196;48.398;11.736;2022-12-18T07:15:52;47.03;;;21.37;;
12267;SDS011;6196;48.398;11.736;2022-12-18T07:18:19;45.40;;;21.40;;
12267;SDS011;6196;48.398;11.736;2022-12-18T07:20:46;42.30;;;20.70;;
12267;SDS011;6196;48.398;11.736;2022-12-18T07:23:14;47.70;;;22.13;;
12267;SDS011;6196;48.398;11.736;2022-12-18T07:25:40;47.67;;;22.37;;
12267;SDS011;6196;48.398;11.736;2022-12-18T07:28:07;41.90;;;21.23;;
12267;SDS011;6196;48.398;11.736;2022-12-18T07:30:42;44.93;;;20.27;;
12267;SDS011;6196;48.398;11.736;2022-12-18T07:33:09;44.43;;;19.87;;
12267;SDS011;6196;48.398;11.736;2022-12-18T07:35:35;54.07;;;22.30;;
12267;SDS011;6196;48.398;11.736;2022-12-18T07:38:02;47.33;;;21.63;;
12267;SDS011;6196;48.398;11.736;2022-12-18T07:40:29;39.83;;;21.20;;
12267;SDS011;6196;48.398;11.736;2022-12-18T07:42:56;45.47;;;21.70;;
12267;SDS011;6196;48.398;11.736;2022-12-18T07:45:23;46.10;;;22.20;;
12267;SDS011;6196;48.398;11.736;2022-12-18T07:47:49;50.47;;;24.90;;
12267;SDS011;6196;48.398;11.736;2022-12-18T07:50:16;45.93;;;22.43;;
12267;SDS011;6196;48.398;11.736;2022-12-18T07:52:43;76.00;;;38.17;;
12267;SDS011;6196;48.398;11.736;2022-12-18T07:55:10;57.57;;;27.30;;
12267;SDS011;6196;48.398;11.736;2022-12-18T07:57:37;50.17;;;23.30;;
12267;SDS011;6196;48.398;11.736;2022-12-18T08:00:16;46.77;;;23.07;;
12267;SDS011;6196;48.398;11.736;2022-12-18T08:02:43;45.63;;;20.83;;
12267;SDS011;6196;48.398;11.736;2022-12-18T08:05:10;43.10;;;21.27;;
12267;SDS011;6196;48.398;11.736;2022-12-18T08:07:37;43.23;;;21.00;;
12267;SDS011;6196;48.398;11.736;2022-12-18T08:10:04;47.37;;;21.77;;
12267;SDS011;6196;48.398;11.736;2022-12-18T08:12:31;42.90;;;20.60;;
12267;SDS011;6196;48.398;11.736;2022-12-18T08:14:58;41.87;;;21.60;;
12267;SDS011;6196;48.398;11.736;2022-12-18T08:17:25;44.67;;;21.73;;
12267;SDS011;6196;48.398;11.736;2022-12-18T08:19:52;47.77;;;21.63;;
12267;SDS011;6196;48.398;11.736;2022-12-18T08:22:18;42.90;;;20.63;;
12267;SDS011;6196;48.398;11.736;2022-12-18T08:24:45;40.10;;;20.17;;
12267;SDS011;6196;48.398;11.736;2022-12-18T08:27:12;43.63;;;20.23;;
12267;SDS011;6196;48.398;11.736;2022-12-18T08:29:54;39.30;;;19.50;;
12267;SDS011;6196;48.398;11.736;2022-12-18T08:32:22;45.40;;;20.37;;
12267;SDS011;6196;48.398;11.736;2022-12-18T08:34:50;43.73;;;20.33;;
12267;SDS011;6196;48.398;11.736;2022-12-18T08:37:17;39.70;;;19.57;;
12267;SDS011;6196;48.398;11.736;2022-12-18T08:39:44;48.53;;;22.07;;
12267;SDS011;6196;48.398;11.736;2022-12-18T08:42:11;50.30;;;22.33;;
12267;SDS011;6196;48.398;11.736;2022-12-18T08:44:57;44.77;;;22.07;;
12267;SDS011;6196;48.398;11.736;2022-12-18T08:47:23;49.60;;;23.07;;
12267;SDS011;6196;48.398;11.736;2022-12-18T08:49:51;49.73;;;21.90;;
12267;SDS011;6196;48.398;11.736;2022-12-18T08:52:18;48.37;;;21.70;;
12267;SDS011;6196;48.398;11.736;2022-12-18T08:54:45;47.40;;;21.27;;
12267;SDS011;6196;48.398;11.736;2022-12-18T08:57:12;46.60;;;21.77;;
12267;SDS011;6196;48.398;11.736;2022-12-18T08:59:39;43.03;;;20.10;;
12267;SDS011;6196;48.398;11.736;2022-12-18T09:02:05;40.87;;;21.40;;
12267;SDS011;6196;48.398;11.736;2022-12-18T09:04:35;39.50;;;19.40;;
12267;SDS011;6196;48.398;11.736;2022-12-18T09:07:02;36.00;;;20.37;;
12267;SDS011;6196;48.398;11.736;2022-12-18T09:09:29;44.50;;;21.30;;
12267;SDS011;6196;48.398;11.736;2022-12-18T09:11:56;40.50;;;19.60;;
12267;SDS011;6196;48.398;11.736;2022-12-18T09:14:22;39.10;;;19.63;;
12267;SDS011;6196;48.398;11.736;2022-12-18T09:16:49;38.87;;;19.43;;
12267;SDS011;6196;48.398;11.736;2022-12-18T09:19:16;36.20;;;19.17;;
12267;SDS011;6196;48.398;11.736;2022-12-18T09:21:43;39.73;;;20.07;;
12267;SDS011;6196;48.398;11.736;2022-12-18T09:24:13;39.53;;;19.77;;
12267;SDS011;6196;48.398;11.736;2022-12-18T09:26:41;37.20;;;18.63;;
12267;SDS011;6196;48.398;11.736;2022-12-18T09:29:12;96.73;;;42.57;;
12267;SDS011;6196;48.398;11.736;2022-12-18T09:31:41;39.83;;;19.93;;
12267;SDS011;6196;48.398;11.736;2022-12-18T09:34:08;87.87;;;39.43;;
12267;SDS011;6196;48.398;11.736;2022-12-18T09:36:34;39.73;;;20.30;;
12267;SDS011;6196;48.398;11.736;2022-12-18T09:39:02;47.40;;;24.10;;
12267;SDS011;6196;48.398;11.736;2022-12-18T09:41:53;56.13;;;28.17;;
12267;SDS011;6196;48.398;11.736;2022-12-18T09:44:30;34.63;;;18.60;;
12267;SDS011;6196;48.398;11.736;2022-12-18T09:49:51;38.83;;;20.77;;
12267;SDS011;6196;48.398;11.736;2022-12-18T09:55:00;47.77;;;23.53;;
12267;SDS011;6196;48.398;11.736;2022-12-18T09:57:40;49.80;;;26.00;;
12267;SDS011;6196;48.398;11.736;2022-12-18T10:00:19;32.53;;;17.93;;
12267;SDS011;6196;48.398;11.736;2022-12-18T10:02:48;47.77;;;24.13;;
12267;SDS011;6196;48.398;11.736;2022-12-18T10:13:55;36.97;;;18.63;;
12267;SDS011;6196;48.398;11.736;2022-12-18T10:17:00;38.20;;;20.23;;
12267;SDS011;6196;48.398;11.736;2022-12-18T10:19:59;33.73;;;17.97;;
12267;SDS011;6196;48.398;11.736;2022-12-18T10:28:27;40.03;;;20.57;;
12267;SDS011;6196;48.398;11.736;2022-12-18T10:30:58;36.77;;;19.03;;
12267;SDS011;6196;48.398;11.736;2022-12-18T10:33:28;40.63;;;20.43;;
12267;SDS011;6196;48.398;11.736;2022-12-18T10:35:57;38.23;;;20.17;;
12267;SDS011;6196;48.398;11.736;2022-12-18T10:38:27;33.03;;;19.37;;
12267;SDS011;6196;48.398;11.736;2022-12-18T10:40:57;39.50;;;20.30;;
12267;SDS011;6196;48.398;11.736;2022-12-18T10:43:38;45.40;;;23.73;;
12267;SDS011;6196;48.398;11.736;2022-12-18T10:48:34;33.27;;;18.93;;
12267;SDS011;6196;48.398;11.736;2022-12-18T10:51:47;36.47;;;21.03;;
12267;SDS011;6196;48.398;11.736;2022-12-18T10:54:12;36.27;;;19.83;;
12267;SDS011;6196;48.398;11.736;2022-12-18T10:56:44;38.93;;;21.03;;
12267;SDS011;6196;48.398;11.736;2022-12-18T10:59:13;38.00;;;20.50;;
12267;SDS011;6196;48.398;11.736;2022-12-18T11:01:53;35.03;;;19.87;;
12267;SDS011;6196;48.398;11.736;2022-12-18T11:04:25;38.43;;;20.70;;
12267;SDS011;6196;48.398;11.736;2022-12-18T11:06:59;35.17;;;19.80;;
12267;SDS011;6196;48.398;11.736;2022-12-18T11:09:39;38.20;;;21.43;;
12267;SDS011;6196;48.398;11.736;2022-12-18T11:14:51;36.73;;;20.93;;
12267;SDS011;6196;48.398;11.736;2022-12-18T11:17:30;36.60;;;20.03;;
12267;SDS011;6196;48.398;11.736;2022-12-18T11:20:03;39.33;;;21.53;;
12267;SDS011;6196;48.398;11.736;2022-12-18T11:22:33;32.33;;;20.47;;
12267;SDS011;6196;48.398;11.736;2022-12-18T11:27:53;34.77;;;19.10;;
12267;SDS011;6196;48.398;11.736;2022-12-18T11:30:29;28.93;;;17.73;;
12267;SDS011;6196;48.398;11.736;2022-12-18T11:35:41;29.33;;;17.97;;
12267;SDS011;6196;48.398;11.736;2022-12-18T11:41:01;33.17;;;19.37;;
12267;SDS011;6196;48.398;11.736;2022-12-18T11:43:41;33.77;;;19.13;;
12267;SDS011;6196;48.398;11.736;2022-12-18T11:46:19;33.43;;;19.30;;
12267;SDS011;6196;48.398;11.736;2022-12-18T11:48:56;32.27;;;19.57;;
12267;SDS011;6196;48.398;11.736;2022-12-18T11:51:32;33.07;;;21.07;;
12267;SDS011;6196;48.398;11.736;2022-12-18T11:54:12;34.07;;;19.37;;
12267;SDS011;6196;48.398;11.736;2022-12-18T11:56:49;37.13;;;21.10;;
12267;SDS011;6196;48.398;11.736;2022-12-18T11:59:27;41.57;;;21.03;;
12267;SDS011;6196;48.398;11.736;2022-12-18T12:14:34;35.80;;;19.27;;
12267;SDS011;6196;48.398;11.736;2022-12-18T12:17:38;32.97;;;17.60;;
12267;SDS011;6196;48.398;11.736;2022-12-18T12:20:23;35.30;;;19.63;;
12267;SDS011;6196;48.398;11.736;2022-12-18T12:23:26;32.13;;;18.77;;
12267;SDS011;6196;48.398;11.736;2022-12-18T12:25:59;31.33;;;17.40;;
12267;SDS011;6196;48.398;11.736;2022-12-18T12:40:18;32.37;;;18.23;;
12267;SDS011;6196;48.398;11.736;2022-12-18T12:43:19;33.87;;;17.63;;
12267;SDS011;6196;48.398;11.736;2022-12-18T12:46:27;33.80;;;18.47;;
12267;SDS011;6196;48.398;11.736;2022-12-18T12:48:59;33.60;;;18.37;;
12267;SDS011;6196;48.398;11.736;2022-12-18T12:54:06;33.60;;;17.70;;
12267;SDS011;6196;48.398;11.736;2022-12-18T13:10:39;29.43;;;17.57;;
12267;SDS011;6196;48.398;11.736;2022-12-18T13:13:12;35.07;;;18.77;;
12267;SDS011;6196;48.398;11.736;2022-12-18T13:15:50;33.77;;;18.63;;
12267;SDS011;6196;48.398;11.736;2022-12-18T13:18:33;35.60;;;19.20;;
12267;SDS011;6196;48.398;11.736;2022-12-18T13:23:50;31.33;;;15.77;;
12267;SDS011;6196;48.398;11.736;2022-12-18T13:28:52;29.33;;;18.13;;
12267;SDS011;6196;48.398;11.736;2022-12-18T13:36:56;34.13;;;18.70;;
12267;SDS011;6196;48.398;11.736;2022-12-18T13:39:58;30.50;;;18.30;;
12267;SDS011;6196;48.398;11.736;2022-12-18T13:42:34;30.80;;;19.37;;
12267;SDS011;6196;48.398;11.736;2022-12-18T13:48:32;35.93;;;20.03;;
12267;SDS011;6196;48.398;11.736;2022-12-18T13:51:04;36.40;;;20.30;;
12267;SDS011;6196;48.398;11.736;2022-12-18T13:53:36;32.37;;;19.73;;
12267;SDS011;6196;48.398;11.736;2022-12-18T13:56:30;37.57;;;20.57;;
12267;SDS011;6196;48.398;11.736;2022-12-18T14:04:20;34.67;;;19.63;;
12267;SDS011;6196;48.398;11.736;2022-12-18T14:06:49;35.93;;;21.33;;
12267;SDS011;6196;48.398;11.736;2022-12-18T14:09:26;38.80;;;20.70;;
12267;SDS011;6196;48.398;11.736;2022-12-18T14:11:57;38.03;;;20.37;;
12267;SDS011;6196;48.398;11.736;2022-12-18T14:14:45;34.50;;;19.67;;
12267;SDS011;6196;48.398;11.736;2022-12-18T14:17:20;38.17;;;20.73;;
12267;SDS011;6196;48.398;11.736;2022-12-18T14:19:48;37.03;;;20.10;;
12267;SDS011;6196;48.398;11.736;2022-12-18T14:22:18;31.83;;;19.33;;
12267;SDS011;6196;48.398;11.736;2022-12-18T14:25:13;37.53;;;22.10;;
12267;SDS011;6196;48.398;11.736;2022-12-18T14:30:36;33.80;;;18.27;;
12267;SDS011;6196;48.398;11.736;2022-12-18T14:33:12;34.77;;;17.80;;
12267;SDS011;6196;48.398;11.736;2022-12-18T14:35:56;31.57;;;17.03;;
12267;SDS011;6196;48.398;11.736;2022-12-18T14:38:32;37.43;;;18.40;;
12267;SDS011;6196;48.398;11.736;2022-12-18T14:41:05;34.67;;;17.97;;
12267;SDS011;6196;48.398;11.736;2022-12-18T14:43:38;32.07;;;17.90;;
12267;SDS011;6196;48.398;11.736;2022-12-18T14:51:59;38.83;;;21.60;;
12267;SDS011;6196;48.398;11.736;2022-12-18T14:54:29;42.23;;;21.50;;
12267;SDS011;6196;48.398;11.736;2022-12-18T15:00:17;37.87;;;19.50;;
12267;SDS011;6196;48.398;11.736;2022-12-18T15:02:56;35.63;;;18.73;;
12267;SDS011;6196;48.398;11.736;2022-12-18T15:05:25;40.37;;;21.70;;
12267;SDS011;6196;48.398;11.736;2022-12-18T15:07:57;42.23;;;21.27;;
12267;SDS011;6196;48.398;11.736;2022-12-18T15:10:29;41.97;;;22.67;;
12267;SDS011;6196;48.398;11.736;2022-12-18T15:17:59;41.80;;;21.20;;
12267;SDS011;6196;48.398;11.736;2022-12-18T15:20:29;38.87;;;20.57;;
12267;SDS011;6196;48.398;11.736;2022-12-18T15:22:59;36.57;;;20.87;;
12267;SDS011;6196;48.398;11.736;2022-12-18T15:25:27;44.30;;;22.77;;
12267;SDS011;6196;48.398;11.736;2022-12-18T15:28:03;40.83;;;21.47;;
12267;SDS011;6196;48.398;11.736;2022-12-18T15:33:32;37.53;;;20.97;;
12267;SDS011;6196;48.398;11.736;2022-12-18T15:36:03;44.30;;;22.07;;
12267;SDS011;6196;48.398;11.736;2022-12-18T15:38:35;44.77;;;22.37;;
12267;SDS011;6196;48.398;11.736;2022-12-18T15:41:02;39.60;;;21.37;;
12267;SDS011;6196;48.398;11.736;2022-12-18T15:43:32;42.87;;;21.47;;
12267;SDS011;6196;48.398;11.736;2022-12-18T15:46:23;43.70;;;24.23;;
12267;SDS011;6196;48.398;11.736;2022-12-18T15:48:52;43.47;;;22.13;;
12267;SDS011;6196;48.398;11.736;2022-12-18T15:54:04;42.47;;;22.00;;
12267;SDS011;6196;48.398;11.736;2022-12-18T15:56:37;43.73;;;22.37;;
12267;SDS011;6196;48.398;11.736;2022-12-18T15:59:23;43.57;;;23.53;;
12267;SDS011;6196;48.398;11.736;2022-12-18T16:01:50;39.70;;;21.83;;
12267;SDS011;6196;48.398;11.736;2022-12-18T16:04:21;40.00;;;21.73;;
12267;SDS011;6196;48.398;11.736;2022-12-18T16:06:49;37.80;;;20.80;;
12267;SDS011;6196;48.398;11.736;2022-12-18T16:09:37;34.77;;;20.57;;
12267;SDS011;6196;48.398;11.736;2022-12-18T16:12:05;38.90;;;21.07;;
12267;SDS011;6196;48.398;11.736;2022-12-18T16:14:34;38.17;;;20.73;;
12267;SDS011;6196;48.398;11.736;2022-12-18T16:17:03;39.63;;;21.70;;
12267;SDS011;6196;48.398;11.736;2022-12-18T16:19:35;36.63;;;20.83;;
12267;SDS011;6196;48.398;11.736;2022-12-18T16:22:02;40.33;;;22.27;;
12267;SDS011;6196;48.398;11.736;2022-12-18T16:24:30;40.90;;;22.17;;
12267;SDS011;6196;48.398;11.736;2022-12-18T16:27:00;42.17;;;23.47;;
12267;SDS011;6196;48.398;11.736;2022-12-18T16:29:27;40.07;;;23.10;;
12267;SDS011;6196;48.398;11.736;2022-12-18T16:31:55;39.97;;;21.00;;
12267;SDS011;6196;48.398;11.736;2022-12-18T16:34:24;40.90;;;21.73;;
12267;SDS011;6196;48.398;11.736;2022-12-18T16:36:56;39.87;;;21.17;;
12267;SDS011;6196;48.398;11.736;2022-12-18T16:39:31;40.23;;;20.63;;
12267;SDS011;6196;48.398;11.736;2022-12-18T16:42:04;39.13;;;21.30;;
12267;SDS011;6196;48.398;11.736;2022-12-18T16:44:42;36.73;;;20.93;;
12267;SDS011;6196;48.398;11.736;2022-12-18T16:47:09;40.27;;;21.70;;
12267;SDS011;6196;48.398;11.736;2022-12-18T16:49:40;38.27;;;21.77;;
12267;SDS011;6196;48.398;11.736;2022-12-18T16:52:07;39.13;;;20.87;;
12267;SDS011;6196;48.398;11.736;2022-12-18T16:54:34;40.93;;;21.27;;
12267;SDS011;6196;48.398;11.736;2022-12-18T16:57:02;39.03;;;21.57;;
12267;SDS011;6196;48.398;11.736;2022-12-18T16:59:30;40.70;;;21.67;;
12267;SDS011;6196;48.398;11.736;2022-12-18T17:02:01;41.73;;;21.53;;
12267;SDS011;6196;48.398;11.736;2022-12-18T17:04:32;36.50;;;18.67;;
12267;SDS011;6196;48.398;11.736;2022-12-18T17:06:59;50.90;;;24.77;;
12267;SDS011;6196;48.398;11.736;2022-12-18T17:09:26;45.93;;;23.97;;
12267;SDS011;6196;48.398;11.736;2022-12-18T17:11:53;44.50;;;22.27;;
12267;SDS011;6196;48.398;11.736;2022-12-18T17:14:22;45.47;;;23.57;;